LGX67EO LIEO-LIRF
Flight info
| Callsign | LGX67EO |
|---|---|
| Flight time | 0h 38m |
| Altitude | 24000 |
| Route | BATOX DCT APSUX DCT TINTO DCT VALMA |
| Aircraft | A20N/M-SDE2E3FGHIRWXY/LB1 |
Departure
| Time | 2026-05-08 12:42 |
|---|---|
| Airport | Olbia Costa Smeralda Airport (LIEO) |
Arrival
| Time | 2026-05-08 13:21 |
|---|---|
| Airport | Rome–Fiumicino Leonardo da Vinci International Airport (LIRF) |
| Time | Latitude | Longitude | Altitude | Speed | Heading |
|---|---|---|---|---|---|
| 2026-05-08 12:15 | 40.90266 | 9.51704 | 49 ft | 0 kts | 326° |
| 2026-05-08 12:34 | 40.90261 | 9.51708 | 49 ft | 2 kts | 326° |
| 2026-05-08 12:34 | 40.90248 | 9.51720 | 49 ft | 2 kts | 326° |
| 2026-05-08 12:35 | 40.90236 | 9.51731 | 49 ft | 2 kts | 326° |
| 2026-05-08 12:35 | 40.90222 | 9.51736 | 49 ft | 2 kts | 9° |
| 2026-05-08 12:35 | 40.90208 | 9.51728 | 49 ft | 2 kts | 44° |
| 2026-05-08 12:35 | 40.90204 | 9.51721 | 49 ft | 1 kts | 62° |
| 2026-05-08 12:36 | 40.90202 | 9.51716 | 49 ft | 0 kts | 56° |
| 2026-05-08 12:38 | 40.90202 | 9.51717 | 50 ft | 0 kts | 56° |
| 2026-05-08 12:38 | 40.90216 | 9.51745 | 49 ft | 7 kts | 56° |
| 2026-05-08 12:38 | 40.90205 | 9.51821 | 49 ft | 13 kts | 139° |
| 2026-05-08 12:39 | 40.90182 | 9.51956 | 49 ft | 17 kts | 73° |
| 2026-05-08 12:39 | 40.90243 | 9.52091 | 49 ft | 17 kts | 54° |
| 2026-05-08 12:39 | 40.90312 | 9.52221 | 49 ft | 17 kts | 56° |
| 2026-05-08 12:39 | 40.90382 | 9.52354 | 49 ft | 17 kts | 56° |
| 2026-05-08 12:40 | 40.90452 | 9.52487 | 49 ft | 17 kts | 55° |
| 2026-05-08 12:40 | 40.90522 | 9.52619 | 49 ft | 17 kts | 55° |
| 2026-05-08 12:40 | 40.90593 | 9.52754 | 49 ft | 17 kts | 57° |
| 2026-05-08 12:40 | 40.90664 | 9.52890 | 49 ft | 17 kts | 54° |
| 2026-05-08 12:41 | 40.90734 | 9.53024 | 49 ft | 18 kts | 56° |
| 2026-05-08 12:41 | 40.90769 | 9.53168 | 49 ft | 14 kts | 115° |
| 2026-05-08 12:41 | 40.90689 | 9.53253 | 49 ft | 14 kts | 157° |
| 2026-05-08 12:41 | 40.90611 | 9.53183 | 49 ft | 17 kts | 236° |
| 2026-05-08 12:42 | 40.90425 | 9.52828 | 49 ft | 84 kts | 236° |
| 2026-05-08 12:42 | 40.89959 | 9.51941 | 50 ft | 147 kts | 235° |
| 2026-05-08 12:42 | 40.89294 | 9.50709 | 360 ft | 170 kts | 237° |
| 2026-05-08 12:42 | 40.88637 | 9.49449 | 1026 ft | 170 kts | 238° |
| 2026-05-08 12:43 | 40.87978 | 9.48172 | 1713 ft | 172 kts | 239° |
| 2026-05-08 12:43 | 40.87294 | 9.46842 | 2210 ft | 183 kts | 238° |
| 2026-05-08 12:43 | 40.86547 | 9.45403 | 2625 ft | 199 kts | 237° |
| 2026-05-08 12:43 | 40.85722 | 9.43831 | 2998 ft | 221 kts | 237° |
| 2026-05-08 12:44 | 40.84810 | 9.42102 | 3505 ft | 237 kts | 236° |
| 2026-05-08 12:44 | 40.83897 | 9.40270 | 4295 ft | 241 kts | 246° |
| 2026-05-08 12:44 | 40.83585 | 9.38142 | 5096 ft | 242 kts | 277° |
| 2026-05-08 12:44 | 40.84116 | 9.36081 | 5841 ft | 246 kts | 306° |
| 2026-05-08 12:45 | 40.85401 | 9.34541 | 6350 ft | 259 kts | 336° |
| 2026-05-08 12:45 | 40.87180 | 9.34154 | 6850 ft | 272 kts | 11° |
| 2026-05-08 12:45 | 40.88874 | 9.35231 | 7589 ft | 275 kts | 45° |
| 2026-05-08 12:45 | 40.89904 | 9.37303 | 8474 ft | 276 kts | 64° |
| 2026-05-08 12:46 | 40.90771 | 9.39560 | 9324 ft | 279 kts | 62° |
| 2026-05-08 12:46 | 40.91675 | 9.41813 | 10124 ft | 284 kts | 62° |
| 2026-05-08 12:46 | 40.92617 | 9.44145 | 10719 ft | 296 kts | 61° |
| 2026-05-08 12:46 | 40.93622 | 9.46623 | 11130 ft | 315 kts | 60° |
| 2026-05-08 12:47 | 40.94685 | 9.49238 | 11504 ft | 333 kts | 60° |
| 2026-05-08 12:47 | 40.95813 | 9.52014 | 11858 ft | 351 kts | 60° |
| 2026-05-08 12:47 | 40.96981 | 9.54899 | 12160 ft | 369 kts | 60° |
| 2026-05-08 12:47 | 40.98226 | 9.57974 | 12567 ft | 383 kts | 60° |
| 2026-05-08 12:48 | 40.99480 | 9.61080 | 13196 ft | 389 kts | 60° |
| 2026-05-08 12:48 | 41.00761 | 9.64254 | 13870 ft | 395 kts | 60° |
| 2026-05-08 12:48 | 41.02054 | 9.67466 | 14483 ft | 400 kts | 60° |
| 2026-05-08 12:48 | 41.03366 | 9.70728 | 15090 ft | 406 kts | 60° |
| 2026-05-08 12:49 | 41.04691 | 9.74027 | 15710 ft | 411 kts | 60° |
| 2026-05-08 12:49 | 41.06041 | 9.77389 | 16289 ft | 417 kts | 60° |
| 2026-05-08 12:49 | 41.07399 | 9.80777 | 16863 ft | 422 kts | 60° |
| 2026-05-08 12:49 | 41.08783 | 9.84230 | 17423 ft | 427 kts | 60° |
| 2026-05-08 12:50 | 41.10180 | 9.87722 | 18015 ft | 431 kts | 60° |
| 2026-05-08 12:50 | 41.11588 | 9.91248 | 18560 ft | 435 kts | 60° |
| 2026-05-08 12:50 | 41.13004 | 9.94797 | 19104 ft | 440 kts | 60° |
| 2026-05-08 12:50 | 41.14428 | 9.98373 | 19602 ft | 445 kts | 60° |
| 2026-05-08 12:51 | 41.15871 | 10.01994 | 20092 ft | 450 kts | 60° |
| 2026-05-08 12:51 | 41.18804 | 10.09388 | 21054 ft | 459 kts | 59° |
| 2026-05-08 12:51 | 41.20297 | 10.13169 | 21510 ft | 464 kts | 60° |
| 2026-05-08 12:52 | 41.21677 | 10.17033 | 21955 ft | 470 kts | 64° |
| 2026-05-08 12:52 | 41.24151 | 10.25190 | 22813 ft | 480 kts | 66° |
| 2026-05-08 12:52 | 41.25356 | 10.29311 | 23240 ft | 484 kts | 66° |
| 2026-05-08 12:53 | 41.26576 | 10.33489 | 23678 ft | 488 kts | 66° |
| 2026-05-08 12:53 | 41.27810 | 10.37705 | 23943 ft | 491 kts | 66° |
| 2026-05-08 12:53 | 41.29041 | 10.41910 | 23965 ft | 491 kts | 65° |
| 2026-05-08 12:53 | 41.30273 | 10.46125 | 23964 ft | 490 kts | 66° |
| 2026-05-08 12:54 | 41.31495 | 10.50309 | 23960 ft | 490 kts | 66° |
| 2026-05-08 12:54 | 41.32736 | 10.54553 | 23955 ft | 490 kts | 65° |
| 2026-05-08 12:54 | 41.33957 | 10.58742 | 23970 ft | 490 kts | 66° |
| 2026-05-08 12:54 | 41.35185 | 10.62960 | 23964 ft | 490 kts | 66° |
| 2026-05-08 12:55 | 41.36415 | 10.67192 | 23956 ft | 489 kts | 66° |
| 2026-05-08 12:55 | 41.37631 | 10.71389 | 23958 ft | 490 kts | 66° |
| 2026-05-08 12:55 | 41.38851 | 10.75596 | 23959 ft | 489 kts | 66° |
| 2026-05-08 12:55 | 41.40064 | 10.79795 | 23957 ft | 489 kts | 66° |
| 2026-05-08 12:56 | 41.41290 | 10.84049 | 23927 ft | 491 kts | 66° |
| 2026-05-08 12:56 | 41.42505 | 10.88272 | 23659 ft | 487 kts | 66° |
| 2026-05-08 12:56 | 41.43700 | 10.92424 | 23295 ft | 484 kts | 66° |
| 2026-05-08 12:56 | 41.44896 | 10.96589 | 22881 ft | 481 kts | 67° |
| 2026-05-08 12:57 | 41.46084 | 11.00729 | 22394 ft | 475 kts | 67° |
| 2026-05-08 12:57 | 41.47262 | 11.04845 | 21873 ft | 471 kts | 67° |
| 2026-05-08 12:57 | 41.48406 | 11.08852 | 21358 ft | 466 kts | 68° |
| 2026-05-08 12:57 | 41.49537 | 11.12848 | 20827 ft | 462 kts | 68° |
| 2026-05-08 12:58 | 41.50655 | 11.16821 | 20297 ft | 457 kts | 68° |
| 2026-05-08 12:58 | 41.51762 | 11.20764 | 19759 ft | 452 kts | 68° |
| 2026-05-08 12:58 | 41.52855 | 11.24666 | 19408 ft | 443 kts | 68° |
| 2026-05-08 12:58 | 41.53917 | 11.28470 | 19174 ft | 435 kts | 68° |
| 2026-05-08 12:59 | 41.54965 | 11.32222 | 18932 ft | 436 kts | 69° |
| 2026-05-08 12:59 | 41.56022 | 11.36012 | 18688 ft | 435 kts | 69° |
| 2026-05-08 12:59 | 41.57170 | 11.39745 | 18387 ft | 428 kts | 60° |
| 2026-05-08 12:59 | 41.58953 | 11.42802 | 18024 ft | 414 kts | 40° |
| 2026-05-08 13:00 | 41.61254 | 11.44928 | 17677 ft | 402 kts | 27° |
| 2026-05-08 13:00 | 41.63685 | 11.46691 | 17335 ft | 393 kts | 26° |
| 2026-05-08 13:00 | 41.66068 | 11.48386 | 16998 ft | 385 kts | 26° |
| 2026-05-08 13:00 | 41.68391 | 11.50052 | 16667 ft | 377 kts | 26° |
| 2026-05-08 13:01 | 41.70696 | 11.51724 | 16328 ft | 370 kts | 27° |
| 2026-05-08 13:01 | 41.72912 | 11.53345 | 15997 ft | 362 kts | 27° |
| 2026-05-08 13:01 | 41.75103 | 11.54956 | 15679 ft | 355 kts | 28° |
| 2026-05-08 13:01 | 41.77244 | 11.56536 | 15432 ft | 348 kts | 28° |
| 2026-05-08 13:02 | 41.79363 | 11.58105 | 15187 ft | 347 kts | 28° |
| 2026-05-08 13:02 | 41.81464 | 11.59663 | 14950 ft | 347 kts | 28° |
| 2026-05-08 13:02 | 41.83569 | 11.61226 | 14702 ft | 345 kts | 28° |
| 2026-05-08 13:02 | 41.85655 | 11.62776 | 14452 ft | 343 kts | 29° |
| 2026-05-08 13:03 | 41.87721 | 11.64312 | 14203 ft | 341 kts | 29° |
| 2026-05-08 13:03 | 41.89784 | 11.65846 | 13954 ft | 339 kts | 30° |
| 2026-05-08 13:03 | 41.91856 | 11.67389 | 13709 ft | 338 kts | 31° |
| 2026-05-08 13:03 | 41.93905 | 11.68918 | 13467 ft | 336 kts | 31° |
| 2026-05-08 13:04 | 41.95921 | 11.70426 | 13219 ft | 334 kts | 30° |
| 2026-05-08 13:04 | 41.97943 | 11.71937 | 12970 ft | 331 kts | 30° |
| 2026-05-08 13:04 | 41.99951 | 11.73438 | 12728 ft | 330 kts | 31° |
| 2026-05-08 13:04 | 42.01957 | 11.74939 | 12470 ft | 327 kts | 31° |
| 2026-05-08 13:05 | 42.03929 | 11.76416 | 12232 ft | 325 kts | 31° |
| 2026-05-08 13:05 | 42.05884 | 11.77882 | 11978 ft | 323 kts | 31° |
| 2026-05-08 13:05 | 42.07851 | 11.79356 | 11732 ft | 320 kts | 31° |
| 2026-05-08 13:05 | 42.09786 | 11.80808 | 11482 ft | 318 kts | 31° |
| 2026-05-08 13:06 | 42.11718 | 11.82258 | 11232 ft | 316 kts | 30° |
| 2026-05-08 13:06 | 42.13607 | 11.83677 | 11000 ft | 314 kts | 31° |
| 2026-05-08 13:06 | 42.15540 | 11.85047 | 10747 ft | 310 kts | 22° |
| 2026-05-08 13:06 | 42.17647 | 11.85431 | 10409 ft | 308 kts | 353° |
| 2026-05-08 13:07 | 42.19691 | 11.84661 | 10106 ft | 304 kts | 341° |
| 2026-05-08 13:07 | 42.21637 | 11.83633 | 9832 ft | 297 kts | 340° |
| 2026-05-08 13:07 | 42.23538 | 11.82663 | 9626 ft | 289 kts | 342° |
| 2026-05-08 13:07 | 42.25408 | 11.81783 | 9442 ft | 280 kts | 343° |
| 2026-05-08 13:08 | 42.27227 | 11.80970 | 9252 ft | 272 kts | 343° |
| 2026-05-08 13:08 | 42.28997 | 11.80206 | 9062 ft | 263 kts | 346° |
| 2026-05-08 13:08 | 42.30760 | 11.80044 | 8960 ft | 247 kts | 17° |
| 2026-05-08 13:08 | 42.32238 | 11.81090 | 8973 ft | 245 kts | 45° |
| 2026-05-08 13:09 | 42.33181 | 11.83001 | 8959 ft | 245 kts | 72° |
| 2026-05-08 13:09 | 42.33334 | 11.85264 | 8740 ft | 247 kts | 100° |
| 2026-05-08 13:09 | 42.32644 | 11.87346 | 8451 ft | 249 kts | 129° |
| 2026-05-08 13:09 | 42.31325 | 11.88887 | 8160 ft | 250 kts | 142° |
| 2026-05-08 13:10 | 42.29935 | 11.90276 | 7866 ft | 249 kts | 142° |
| 2026-05-08 13:10 | 42.28558 | 11.91657 | 7575 ft | 248 kts | 142° |
| 2026-05-08 13:10 | 42.27175 | 11.93060 | 7287 ft | 246 kts | 142° |
| 2026-05-08 13:10 | 42.25808 | 11.94455 | 6995 ft | 246 kts | 141° |
| 2026-05-08 13:11 | 42.24455 | 11.95840 | 6704 ft | 245 kts | 141° |
| 2026-05-08 13:11 | 42.23098 | 11.97229 | 6409 ft | 245 kts | 141° |
| 2026-05-08 13:11 | 42.21759 | 11.98602 | 6123 ft | 244 kts | 141° |
| 2026-05-08 13:11 | 42.20410 | 11.99973 | 5970 ft | 238 kts | 145° |
| 2026-05-08 13:12 | 42.18953 | 12.01027 | 5870 ft | 240 kts | 158° |
| 2026-05-08 13:12 | 42.17369 | 12.01759 | 5493 ft | 243 kts | 162° |
| 2026-05-08 13:12 | 42.15728 | 12.02432 | 5137 ft | 245 kts | 162° |
| 2026-05-08 13:12 | 42.14106 | 12.03096 | 4799 ft | 245 kts | 162° |
| 2026-05-08 13:13 | 42.12489 | 12.03786 | 4459 ft | 245 kts | 158° |
| 2026-05-08 13:13 | 42.11078 | 12.05011 | 4127 ft | 242 kts | 134° |
| 2026-05-08 13:13 | 42.09942 | 12.06657 | 3965 ft | 233 kts | 131° |
| 2026-05-08 13:13 | 42.08904 | 12.08229 | 3933 ft | 219 kts | 131° |
| 2026-05-08 13:14 | 42.07893 | 12.09748 | 3725 ft | 215 kts | 131° |
| 2026-05-08 13:14 | 42.06904 | 12.11218 | 3503 ft | 211 kts | 131° |
| 2026-05-08 13:14 | 42.05925 | 12.12661 | 3284 ft | 208 kts | 131° |
| 2026-05-08 13:14 | 42.04959 | 12.14081 | 3104 ft | 203 kts | 131° |
| 2026-05-08 13:15 | 42.04021 | 12.15460 | 3113 ft | 194 kts | 131° |
| 2026-05-08 13:15 | 42.03140 | 12.16753 | 2984 ft | 183 kts | 131° |
| 2026-05-08 13:15 | 42.02252 | 12.17976 | 2714 ft | 180 kts | 139° |
| 2026-05-08 13:15 | 42.01225 | 12.18897 | 2497 ft | 174 kts | 152° |
| 2026-05-08 13:16 | 42.00170 | 12.19530 | 2449 ft | 157 kts | 159° |
| 2026-05-08 13:16 | 41.99166 | 12.20023 | 2453 ft | 154 kts | 161° |
| 2026-05-08 13:16 | 41.98138 | 12.20486 | 2460 ft | 154 kts | 162° |
| 2026-05-08 13:16 | 41.97120 | 12.20922 | 2459 ft | 154 kts | 163° |
| 2026-05-08 13:17 | 41.96082 | 12.21359 | 2310 ft | 154 kts | 163° |
| 2026-05-08 13:17 | 41.95069 | 12.21781 | 2115 ft | 151 kts | 163° |
| 2026-05-08 13:17 | 41.94068 | 12.22197 | 1930 ft | 151 kts | 163° |
| 2026-05-08 13:17 | 41.93089 | 12.22604 | 1727 ft | 142 kts | 162° |
| 2026-05-08 13:18 | 41.92176 | 12.22984 | 1523 ft | 136 kts | 162° |
| 2026-05-08 13:18 | 41.91267 | 12.23362 | 1351 ft | 135 kts | 162° |
| 2026-05-08 13:18 | 41.90373 | 12.23735 | 1183 ft | 135 kts | 162° |
| 2026-05-08 13:18 | 41.89480 | 12.24109 | 1012 ft | 134 kts | 163° |
| 2026-05-08 13:19 | 41.88592 | 12.24480 | 838 ft | 133 kts | 163° |
| 2026-05-08 13:19 | 41.87712 | 12.24848 | 667 ft | 132 kts | 163° |
| 2026-05-08 13:19 | 41.86830 | 12.25218 | 489 ft | 132 kts | 164° |
| 2026-05-08 13:19 | 41.85966 | 12.25580 | 317 ft | 131 kts | 164° |
| 2026-05-08 13:20 | 41.85098 | 12.25936 | 167 ft | 130 kts | 162° |
| 2026-05-08 13:20 | 41.84240 | 12.26305 | 27 ft | 127 kts | 164° |
| 2026-05-08 13:20 | 41.83496 | 12.26607 | 11 ft | 88 kts | 162° |
| 2026-05-08 13:20 | 41.83082 | 12.26783 | 11 ft | 54 kts | 163° |
| 2026-05-08 13:21 | 41.82741 | 12.26870 | 11 ft | 42 kts | 185° |
| 2026-05-08 13:21 | 41.82500 | 12.26807 | 11 ft | 29 kts | 193° |
| 2026-05-08 13:21 | 41.82310 | 12.26787 | 7 ft | 26 kts | 169° |
| 2026-05-08 13:21 | 41.82138 | 12.26850 | 8 ft | 24 kts | 166° |
| 2026-05-08 13:22 | 41.81986 | 12.26918 | 10 ft | 22 kts | 161° |
| 2026-05-08 13:22 | 41.81818 | 12.26990 | 10 ft | 26 kts | 162° |
| 2026-05-08 13:22 | 41.81631 | 12.27068 | 11 ft | 28 kts | 162° |
| 2026-05-08 13:22 | 41.81445 | 12.27146 | 10 ft | 26 kts | 162° |
| 2026-05-08 13:23 | 41.81271 | 12.27218 | 10 ft | 25 kts | 163° |
| 2026-05-08 13:23 | 41.81104 | 12.27288 | 10 ft | 24 kts | 162° |
| 2026-05-08 13:23 | 41.80944 | 12.27347 | 10 ft | 23 kts | 175° |
| 2026-05-08 13:23 | 41.80786 | 12.27324 | 10 ft | 22 kts | 190° |
| 2026-05-08 13:24 | 41.80654 | 12.27220 | 10 ft | 23 kts | 243° |
| 2026-05-08 13:24 | 41.80594 | 12.27007 | 10 ft | 25 kts | 250° |
| 2026-05-08 13:24 | 41.80533 | 12.26789 | 10 ft | 25 kts | 249° |
| 2026-05-08 13:24 | 41.80472 | 12.26576 | 12 ft | 23 kts | 247° |
| 2026-05-08 13:25 | 41.80407 | 12.26391 | 13 ft | 21 kts | 215° |
| 2026-05-08 13:25 | 41.80268 | 12.26405 | 13 ft | 20 kts | 166° |
| 2026-05-08 13:25 | 41.80136 | 12.26359 | 13 ft | 19 kts | 205° |
| 2026-05-08 13:25 | 41.80008 | 12.26280 | 14 ft | 21 kts | 204° |
| 2026-05-08 13:26 | 41.79877 | 12.26199 | 16 ft | 20 kts | 204° |
| 2026-05-08 13:26 | 41.79776 | 12.26126 | 18 ft | 13 kts | 235° |
| 2026-05-08 13:26 | 41.79796 | 12.25975 | 20 ft | 21 kts | 294° |
| 2026-05-08 13:26 | 41.79861 | 12.25789 | 19 ft | 21 kts | 295° |
| 2026-05-08 13:27 | 41.79923 | 12.25612 | 18 ft | 18 kts | 294° |
| 2026-05-08 13:27 | 41.79910 | 12.25520 | 18 ft | 11 kts | 207° |
| 2026-05-08 13:27 | 41.79847 | 12.25479 | 19 ft | 9 kts | 204° |
| 2026-05-08 13:27 | 41.79779 | 12.25438 | 19 ft | 10 kts | 205° |
| 2026-05-08 13:28 | 41.79732 | 12.25446 | 19 ft | 3 kts | 113° |
| 2026-05-08 13:28 | 41.79721 | 12.25479 | 19 ft | 2 kts | 115° |